createdAt,value
2023-05-11T00:00:17.562Z,10.50
2023-05-11T00:02:45.996Z,10.40
2023-05-11T00:05:13.708Z,10.30
2023-05-11T00:07:41.295Z,10.20
2023-05-11T00:10:09.587Z,10.20
2023-05-11T00:12:37.068Z,10.00
2023-05-11T00:15:05.246Z,10.00
2023-05-11T00:17:32.749Z,9.90
2023-05-11T00:20:00.357Z,9.80
2023-05-11T00:22:27.904Z,9.80
2023-05-11T00:24:55.368Z,9.80
2023-05-11T00:27:22.884Z,9.70
2023-05-11T00:29:50.400Z,9.70
2023-05-11T00:32:17.933Z,9.70
2023-05-11T00:34:45.439Z,9.70
2023-05-11T00:37:12.914Z,9.80
2023-05-11T00:39:40.834Z,9.70
2023-05-11T00:42:08.443Z,9.80
2023-05-11T00:44:35.939Z,9.70
2023-05-11T00:47:04.053Z,9.80
2023-05-11T00:49:31.764Z,9.80
2023-05-11T00:52:03.241Z,9.80
2023-05-11T00:54:32.228Z,9.90
2023-05-11T00:56:59.718Z,9.90
2023-05-11T00:59:27.799Z,10.00
2023-05-11T01:01:55.937Z,10.00
2023-05-11T01:04:23.741Z,10.00
2023-05-11T01:07:24.299Z,10.00
2023-05-11T01:10:34.613Z,10.00
2023-05-11T01:13:24.935Z,10.00
2023-05-11T01:15:59.296Z,10.00
2023-05-11T01:18:33.409Z,10.00
2023-05-11T01:21:02.570Z,9.90
2023-05-11T01:23:47.113Z,9.80
2023-05-11T01:26:55.682Z,9.70
2023-05-11T01:29:50.880Z,9.80
2023-05-11T01:32:28.020Z,9.80
2023-05-11T01:35:29.537Z,9.90
2023-05-11T01:37:59.207Z,9.90
2023-05-11T01:40:35.174Z,9.90
2023-05-11T01:43:06.456Z,9.90
2023-05-11T01:45:38.213Z,10.00
2023-05-11T01:48:13.250Z,9.90
2023-05-11T01:50:41.574Z,9.90
2023-05-11T01:53:11.234Z,9.90
2023-05-11T01:55:40.968Z,9.90
2023-05-11T01:58:10.863Z,9.90
2023-05-11T02:00:39.309Z,9.90
2023-05-11T02:03:08.228Z,9.90
2023-05-11T02:05:36.861Z,9.90
2023-05-11T02:08:06.298Z,10.00
2023-05-11T02:10:36.184Z,10.00
2023-05-11T02:13:05.480Z,10.00
2023-05-11T02:15:34.493Z,10.00
2023-05-11T02:18:03.869Z,10.00
2023-05-11T02:20:33.340Z,10.00
2023-05-11T02:23:01.650Z,10.00
2023-05-11T02:25:30.486Z,9.80
2023-05-11T02:27:57.976Z,9.90
2023-05-11T02:30:27.550Z,9.90
2023-05-11T02:32:59.419Z,9.90
2023-05-11T02:35:30.741Z,9.90
2023-05-11T02:38:01.919Z,10.00
2023-05-11T02:40:34.068Z,9.90
2023-05-11T02:43:10.909Z,9.80
2023-05-11T02:45:43.788Z,9.90
2023-05-11T02:48:23.333Z,10.00
2023-05-11T02:50:52.916Z,10.00
2023-05-11T02:53:22.149Z,10.00
2023-05-11T02:55:51.532Z,10.00
2023-05-11T02:58:19.741Z,9.90
2023-05-11T03:00:48.388Z,9.90
2023-05-11T03:03:16.108Z,9.90
2023-05-11T03:05:43.745Z,9.90
2023-05-11T03:08:11.403Z,9.80
2023-05-11T03:10:39.513Z,9.80
2023-05-11T03:13:09.095Z,9.90
2023-05-11T03:15:38.291Z,9.80
2023-05-11T03:18:08.054Z,9.80
2023-05-11T03:20:40.861Z,9.80
2023-05-11T03:23:08.845Z,9.80
2023-05-11T03:25:36.899Z,9.70
2023-05-11T03:28:06.162Z,9.80
2023-05-11T03:30:34.090Z,9.70
2023-05-11T03:33:02.565Z,9.80
2023-05-11T03:35:34.193Z,9.70
2023-05-11T03:38:03.037Z,9.80
2023-05-11T03:40:33.483Z,9.70
2023-05-11T03:43:04.427Z,9.80
2023-05-11T03:45:33.483Z,9.80
2023-05-11T03:48:01.804Z,9.80
2023-05-11T03:50:29.773Z,9.70
2023-05-11T03:52:57.761Z,9.80
2023-05-11T03:55:25.380Z,9.80
2023-05-11T03:57:53.093Z,9.90
2023-05-11T04:00:20.832Z,9.90
2023-05-11T04:02:48.544Z,9.90
2023-05-11T04:05:16.073Z,9.90
2023-05-11T04:07:43.580Z,10.00
2023-05-11T04:10:11.443Z,10.00
2023-05-11T04:12:39.217Z,10.00
2023-05-11T04:15:07.520Z,10.00
2023-05-11T04:17:35.180Z,10.10
2023-05-11T04:20:02.795Z,10.20
2023-05-11T04:22:30.262Z,10.30
2023-05-11T04:24:57.796Z,10.40
2023-05-11T04:27:25.420Z,10.40
2023-05-11T04:29:53.004Z,10.40
2023-05-11T04:32:20.473Z,10.40
2023-05-11T04:34:48.009Z,10.40
2023-05-11T04:37:15.615Z,10.50
2023-05-11T04:39:43.091Z,10.50
2023-05-11T04:42:10.623Z,10.60
2023-05-11T04:44:38.119Z,10.60
2023-05-11T04:47:05.752Z,10.70
2023-05-11T04:49:33.264Z,10.70
2023-05-11T04:52:00.764Z,10.80
2023-05-11T04:54:28.278Z,10.90
2023-05-11T04:56:55.988Z,10.90
2023-05-11T04:59:23.739Z,10.90
2023-05-11T05:01:51.268Z,11.00
2023-05-11T05:04:18.765Z,11.10
2023-05-11T05:06:46.589Z,11.20
2023-05-11T05:09:14.031Z,11.30
2023-05-11T05:11:41.526Z,11.30
2023-05-11T05:14:08.983Z,11.30
2023-05-11T05:16:36.502Z,11.30
2023-05-11T05:19:04.100Z,11.40
2023-05-11T05:21:32.580Z,11.50
2023-05-11T05:24:00.068Z,11.60
2023-05-11T05:26:27.664Z,11.60
2023-05-11T05:28:55.238Z,11.80
2023-05-11T05:31:22.762Z,11.80
2023-05-11T05:33:50.434Z,11.80
2023-05-11T05:36:17.887Z,11.80
2023-05-11T05:38:45.454Z,11.80
2023-05-11T05:41:12.907Z,11.80
2023-05-11T05:43:40.470Z,11.80
2023-05-11T05:46:08.068Z,12.10
2023-05-11T05:48:35.839Z,12.30
2023-05-11T05:51:03.421Z,12.40
2023-05-11T05:53:30.930Z,12.60
2023-05-11T05:55:58.484Z,12.70
2023-05-11T05:58:26.183Z,12.80
2023-05-11T06:00:53.796Z,12.80
2023-05-11T06:03:21.953Z,12.90
2023-05-11T06:05:49.744Z,13.10
2023-05-11T06:08:17.252Z,13.20
2023-05-11T06:10:44.812Z,13.20
2023-05-11T06:13:12.313Z,13.20
2023-05-11T06:15:43.016Z,13.30
2023-05-11T06:18:11.207Z,13.40
2023-05-11T06:20:38.795Z,13.40
2023-05-11T06:23:06.298Z,13.50
2023-05-11T06:25:36.608Z,13.50
2023-05-11T06:28:04.151Z,13.50
2023-05-11T06:30:31.740Z,13.50
2023-05-11T06:32:59.234Z,13.90
2023-05-11T06:35:26.810Z,14.40
2023-05-11T06:37:54.273Z,14.80
2023-05-11T06:40:21.917Z,14.80
2023-05-11T06:42:49.426Z,15.10
2023-05-11T06:45:16.980Z,15.20
2023-05-11T06:47:44.575Z,15.30
2023-05-11T06:50:12.509Z,15.30
2023-05-11T06:52:39.998Z,15.20
2023-05-11T06:55:08.191Z,15.00
2023-05-11T06:57:35.733Z,14.90
2023-05-11T07:00:04.061Z,14.80
2023-05-11T07:02:32.064Z,14.60
2023-05-11T07:13:17.421Z,14.40
2023-05-11T07:15:45.092Z,14.40
2023-05-11T07:18:12.606Z,14.30
2023-05-11T07:20:41.139Z,14.50
2023-05-11T07:23:08.627Z,14.60
2023-05-11T07:25:36.093Z,14.60
2023-05-11T07:28:03.858Z,14.90
2023-05-11T07:30:31.385Z,15.10
2023-05-11T07:32:58.916Z,15.30
2023-05-11T07:35:26.434Z,15.50
2023-05-11T07:37:53.936Z,15.60
2023-05-11T07:40:21.743Z,15.80
2023-05-11T07:42:49.417Z,15.80
2023-05-11T07:45:16.865Z,15.90
2023-05-11T07:47:45.348Z,16.10
2023-05-11T07:50:12.920Z,16.20
2023-05-11T07:52:40.696Z,16.20
2023-05-11T07:55:08.662Z,16.40
2023-05-11T07:57:36.112Z,16.40
2023-05-11T08:00:05.988Z,16.60
2023-05-11T08:02:33.635Z,17.00
2023-05-11T08:05:01.146Z,17.20
2023-05-11T08:07:28.682Z,17.20
2023-05-11T08:09:56.279Z,17.20
2023-05-11T08:12:23.808Z,17.30
2023-05-11T08:14:51.268Z,17.40
2023-05-11T08:17:18.772Z,17.10
2023-05-11T08:19:46.470Z,17.10
2023-05-11T08:22:13.954Z,17.40
2023-05-11T08:24:41.684Z,17.60
2023-05-11T08:27:09.521Z,17.60
2023-05-11T08:29:36.978Z,17.90
2023-05-11T08:32:04.739Z,17.90
2023-05-11T08:34:32.325Z,18.00
2023-05-11T08:37:02.005Z,18.10
2023-05-11T08:39:45.471Z,18.50
2023-05-11T08:42:17.403Z,18.70
2023-05-11T08:44:45.804Z,18.80
2023-05-11T08:49:43.984Z,19.00
2023-05-11T08:52:12.839Z,19.40
2023-05-11T08:54:40.334Z,19.50
2023-05-11T08:57:09.069Z,19.80
2023-05-11T08:59:37.103Z,19.90
2023-05-11T09:02:06.549Z,20.00
2023-05-11T09:04:34.757Z,19.90
2023-05-11T09:07:02.481Z,19.70
2023-05-11T09:09:30.051Z,19.50
2023-05-11T09:11:57.937Z,19.70
2023-05-11T09:14:27.616Z,20.00
2023-05-11T09:16:55.357Z,20.10
2023-05-11T09:19:22.960Z,20.00
2023-05-11T09:21:53.564Z,19.80
2023-05-11T09:24:21.994Z,19.70
2023-05-11T09:26:49.508Z,19.50
2023-05-11T09:29:21.198Z,19.50
2023-05-11T09:31:48.789Z,19.50
2023-05-11T09:34:17.384Z,19.80
2023-05-11T09:36:47.971Z,19.80
2023-05-11T09:39:35.004Z,19.80
2023-05-11T09:42:24.428Z,20.10
2023-05-11T09:44:53.037Z,20.60
2023-05-11T09:47:22.730Z,20.50
2023-05-11T09:49:50.315Z,20.30
2023-05-11T09:52:21.523Z,20.70
2023-05-11T09:54:52.111Z,21.20
2023-05-11T09:57:32.725Z,21.80
2023-05-11T10:00:01.027Z,21.90
2023-05-11T10:02:33.896Z,21.70
2023-05-11T10:05:02.516Z,21.90
2023-05-11T10:07:36.830Z,21.90
2023-05-11T10:10:07.161Z,21.70
2023-05-11T10:12:38.666Z,21.40
2023-05-11T10:15:09.361Z,22.10
2023-05-11T10:17:38.075Z,22.70
2023-05-11T10:20:07.096Z,23.10
2023-05-11T10:22:34.865Z,22.80
2023-05-11T10:25:03.637Z,22.60
2023-05-11T10:27:32.909Z,22.40
2023-05-11T10:30:02.471Z,22.40
2023-05-11T10:32:31.736Z,22.20
2023-05-11T10:35:00.440Z,22.00
2023-05-11T10:37:28.537Z,22.40
2023-05-11T10:39:57.617Z,23.20
2023-05-11T10:42:49.297Z,23.50
2023-05-11T10:45:56.716Z,23.10
2023-05-11T10:48:33.393Z,23.00
2023-05-11T10:51:47.851Z,22.50
2023-05-11T10:54:53.569Z,22.40
2023-05-11T10:57:58.137Z,21.90
2023-05-11T11:00:56.371Z,21.90
2023-05-11T11:03:24.117Z,21.80
2023-05-11T11:05:51.663Z,21.70
2023-05-11T11:08:19.209Z,21.80
2023-05-11T11:10:47.120Z,22.50
2023-05-11T11:13:16.976Z,23.90
2023-05-11T11:16:10.317Z,24.90
2023-05-11T11:18:38.076Z,25.00
2023-05-11T11:21:05.871Z,24.40
2023-05-11T11:23:43.284Z,23.70
2023-05-11T11:26:15.807Z,22.80
2023-05-11T11:29:09.697Z,22.40
2023-05-11T11:31:38.034Z,22.40
2023-05-11T11:34:27.496Z,22.40
2023-05-11T11:37:04.036Z,22.70
2023-05-11T11:40:02.610Z,22.80
2023-05-11T11:42:39.831Z,22.40
2023-05-11T11:45:29.196Z,22.30
2023-05-11T11:48:36.172Z,22.30
2023-05-11T11:51:14.021Z,22.10
2023-05-11T11:53:41.551Z,22.00
2023-05-11T11:56:28.920Z,21.80
2023-05-11T11:58:58.518Z,21.50
2023-05-11T12:01:38.912Z,21.30
2023-05-11T12:04:21.123Z,21.00
2023-05-11T12:07:00.687Z,20.60
2023-05-11T12:09:28.273Z,20.70
2023-05-11T12:11:57.605Z,21.60
2023-05-11T12:14:26.639Z,23.80
2023-05-11T12:17:05.613Z,25.60
2023-05-11T12:19:33.323Z,25.40
2023-05-11T12:22:01.711Z,24.20
2023-05-11T12:24:29.575Z,23.10
2023-05-11T12:26:57.863Z,22.20
2023-05-11T12:29:26.175Z,21.60
2023-05-11T12:31:53.912Z,21.40
2023-05-11T12:34:25.489Z,21.40
2023-05-11T12:36:54.889Z,21.70
2023-05-11T12:39:27.889Z,23.60
2023-05-11T12:41:56.826Z,26.20
2023-05-11T12:44:27.569Z,27.20
2023-05-11T12:46:55.481Z,28.50
2023-05-11T12:49:26.580Z,29.10
2023-05-11T12:52:10.728Z,29.20
2023-05-11T12:54:41.275Z,30.00
2023-05-11T12:57:23.424Z,30.10
2023-05-11T13:00:12.922Z,28.90
2023-05-11T13:02:58.288Z,27.60
2023-05-11T13:05:27.857Z,28.50
2023-05-11T13:08:01.934Z,28.30
2023-05-11T13:10:29.785Z,28.50
2023-05-11T13:12:57.594Z,29.10
2023-05-11T13:15:28.647Z,28.50
2023-05-11T13:18:02.485Z,26.30
2023-05-11T13:20:34.798Z,25.60
2023-05-11T13:23:15.387Z,26.00
2023-05-11T13:25:49.037Z,26.50
2023-05-11T13:28:18.501Z,26.60
2023-05-11T13:30:47.266Z,26.90
2023-05-11T13:33:15.064Z,27.80
2023-05-11T13:35:44.226Z,28.80
2023-05-11T13:38:13.004Z,30.10
2023-05-11T13:40:40.667Z,27.60
2023-05-11T13:43:08.148Z,26.80
2023-05-11T13:45:36.756Z,25.80
2023-05-11T13:48:04.561Z,24.80
2023-05-11T13:50:32.392Z,26.20
2023-05-11T13:52:59.907Z,27.50
2023-05-11T13:55:28.919Z,29.10
2023-05-11T13:57:57.157Z,31.00
2023-05-11T14:00:24.937Z,31.20
2023-05-11T14:02:53.190Z,30.00
2023-05-11T14:05:21.385Z,28.10
2023-05-11T14:07:49.290Z,27.00
2023-05-11T14:10:18.050Z,25.50
2023-05-11T14:12:47.757Z,24.40
2023-05-11T14:15:15.396Z,23.90
2023-05-11T14:17:43.629Z,23.80
2023-05-11T14:20:15.830Z,23.60
2023-05-11T14:22:43.442Z,23.40
2023-05-11T14:25:11.254Z,22.70
2023-05-11T14:27:38.889Z,22.20
2023-05-11T14:30:08.253Z,22.20
2023-05-11T14:32:35.930Z,22.20
2023-05-11T14:35:03.584Z,22.30
2023-05-11T14:37:31.530Z,22.20
2023-05-11T14:40:00.002Z,22.00
2023-05-11T14:42:29.653Z,22.10
2023-05-11T14:44:57.164Z,22.20
2023-05-11T14:47:25.096Z,22.60
2023-05-11T14:49:52.684Z,22.60
2023-05-11T14:52:20.152Z,23.50
2023-05-11T14:54:47.670Z,24.80
2023-05-11T14:57:15.276Z,24.80
2023-05-11T14:59:51.575Z,24.20
2023-05-11T15:02:26.531Z,24.00
2023-05-11T15:04:54.274Z,24.60
2023-05-11T15:07:21.823Z,25.20
2023-05-11T15:09:50.909Z,24.90
2023-05-11T15:12:18.494Z,25.60
2023-05-11T15:14:46.169Z,26.00
2023-05-11T15:17:13.684Z,27.30
2023-05-11T15:19:41.129Z,28.10
2023-05-11T15:22:08.804Z,27.20
2023-05-11T15:24:36.370Z,26.30
2023-05-11T15:27:04.061Z,25.10
2023-05-11T15:29:32.793Z,25.20
2023-05-11T15:32:00.352Z,25.60
2023-05-11T15:34:28.447Z,26.00
2023-05-11T15:36:58.692Z,27.40
2023-05-11T15:39:26.335Z,26.70
2023-05-11T15:41:53.823Z,26.60
2023-05-11T15:44:21.478Z,27.50
2023-05-11T15:46:49.060Z,28.90
2023-05-11T15:49:17.078Z,30.00
2023-05-11T15:51:44.584Z,29.60
2023-05-11T15:54:12.077Z,29.80
2023-05-11T15:56:39.577Z,29.90
2023-05-11T15:59:07.604Z,28.90
2023-05-11T16:01:35.222Z,28.40
2023-05-11T16:04:03.796Z,28.20
2023-05-11T16:06:32.226Z,28.40
2023-05-11T16:08:59.760Z,28.60
2023-05-11T16:11:27.806Z,28.70
2023-05-11T16:13:55.267Z,29.60
2023-05-11T16:16:23.313Z,30.30
2023-05-11T16:18:51.535Z,30.30
2023-05-11T16:21:19.024Z,29.30
2023-05-11T16:23:46.589Z,28.80
2023-05-11T16:26:14.210Z,28.30
2023-05-11T16:28:42.881Z,27.90
2023-05-11T16:31:10.447Z,27.80
2023-05-11T16:33:38.003Z,27.10
2023-05-11T16:36:06.008Z,27.60
2023-05-11T16:38:33.530Z,27.80
2023-05-11T16:41:01.250Z,27.70
2023-05-11T16:43:28.808Z,27.50
2023-05-11T16:45:56.314Z,27.70
2023-05-11T16:48:24.011Z,27.70
2023-05-11T16:50:52.489Z,27.30
2023-05-11T16:53:22.513Z,27.10
2023-05-11T16:55:50.519Z,26.70
2023-05-11T16:58:17.993Z,26.40
2023-05-11T17:00:45.575Z,26.30
2023-05-11T17:03:13.236Z,26.40
2023-05-11T17:05:41.692Z,26.70
2023-05-11T17:08:09.147Z,26.60
2023-05-11T17:10:36.675Z,26.20
2023-05-11T17:13:04.500Z,25.90
2023-05-11T17:15:32.383Z,26.20
2023-05-11T17:18:00.006Z,26.00
2023-05-11T17:20:27.585Z,26.00
2023-05-11T17:22:56.000Z,25.90
2023-05-11T17:25:23.545Z,25.80
2023-05-11T17:27:51.220Z,26.30
2023-05-11T17:30:19.104Z,26.10
2023-05-11T17:32:47.115Z,26.00
2023-05-11T17:35:14.861Z,25.60
2023-05-11T17:37:42.353Z,25.00
2023-05-11T17:40:10.738Z,25.10
2023-05-11T17:42:38.959Z,25.10
2023-05-11T17:45:07.994Z,24.40
2023-05-11T17:47:35.795Z,23.80
2023-05-11T17:50:03.449Z,23.00
2023-05-11T17:52:30.967Z,22.00
2023-05-11T17:54:58.742Z,21.10
2023-05-11T17:57:26.576Z,20.20
2023-05-11T17:59:54.189Z,19.40
2023-05-11T18:02:21.842Z,18.90
2023-05-11T18:04:49.567Z,18.50
2023-05-11T18:07:17.177Z,18.30
2023-05-11T18:09:44.795Z,18.10
2023-05-11T18:12:12.795Z,17.80
2023-05-11T18:14:40.356Z,17.70
2023-05-11T18:17:07.916Z,17.40
2023-05-11T18:19:35.445Z,17.20
2023-05-11T18:22:03.090Z,17.00
2023-05-11T18:24:30.786Z,16.80
2023-05-11T18:26:58.877Z,16.70
2023-05-11T18:29:26.672Z,16.50
2023-05-11T18:31:54.260Z,16.30
2023-05-11T18:34:21.885Z,16.20
2023-05-11T18:36:49.393Z,16.00
2023-05-11T18:39:17.118Z,15.80
2023-05-11T18:41:44.626Z,15.60
2023-05-11T18:44:14.242Z,15.40
2023-05-11T18:46:41.906Z,15.30
2023-05-11T18:49:09.475Z,15.20
2023-05-11T18:51:37.109Z,15.20
2023-05-11T18:54:04.968Z,15.10
2023-05-11T18:56:32.519Z,15.00
2023-05-11T18:59:00.062Z,15.10
2023-05-11T19:01:39.786Z,15.00
2023-05-11T19:04:17.896Z,15.00
2023-05-11T19:06:45.448Z,14.90
2023-05-11T19:09:12.942Z,14.80
2023-05-11T19:11:40.464Z,14.70
2023-05-11T19:14:08.049Z,14.70
2023-05-11T19:16:35.969Z,14.60
2023-05-11T19:19:03.511Z,14.40
2023-05-11T19:21:31.028Z,14.30
2023-05-11T19:23:58.566Z,14.20
2023-05-11T19:26:26.255Z,14.00
2023-05-11T19:28:53.718Z,13.90
2023-05-11T19:31:21.256Z,13.70
2023-05-11T19:33:48.796Z,13.70
2023-05-11T19:36:16.737Z,13.70
2023-05-11T19:38:44.380Z,13.60
2023-05-11T19:41:11.949Z,13.60
2023-05-11T19:43:39.418Z,13.60
2023-05-11T19:46:06.897Z,13.60
2023-05-11T19:48:34.407Z,13.50
2023-05-11T19:51:02.013Z,13.50
2023-05-11T19:53:29.708Z,13.40
2023-05-11T19:55:57.218Z,13.40
2023-05-11T19:58:26.921Z,13.40
2023-05-11T20:00:55.182Z,13.30
2023-05-11T20:03:22.742Z,13.30
2023-05-11T20:05:50.363Z,13.40
2023-05-11T20:08:17.862Z,13.40
2023-05-11T20:10:45.328Z,13.40
2023-05-11T20:13:12.853Z,13.30
2023-05-11T20:15:40.555Z,13.40
2023-05-11T20:18:08.498Z,13.40
2023-05-11T20:20:36.241Z,13.40
2023-05-11T20:23:04.008Z,13.30
2023-05-11T20:25:31.763Z,13.20
2023-05-11T20:27:59.279Z,13.20
2023-05-11T20:30:26.771Z,13.20
2023-05-11T20:35:25.518Z,13.10
2023-05-11T20:37:53.116Z,13.00
2023-05-11T20:40:21.484Z,12.90
2023-05-11T20:42:49.159Z,12.80
2023-05-11T20:45:16.787Z,12.80
2023-05-11T20:47:44.259Z,12.80
2023-05-11T20:50:12.337Z,12.80
2023-05-11T20:52:39.861Z,12.70
2023-05-11T20:55:08.291Z,12.70
2023-05-11T20:57:35.863Z,12.70
2023-05-11T21:00:07.735Z,12.70
2023-05-11T21:02:35.507Z,12.60
2023-05-11T21:05:04.085Z,12.50
2023-05-11T21:07:31.646Z,12.40
2023-05-11T21:09:59.149Z,12.40
2023-05-11T21:12:26.628Z,12.30
2023-05-11T21:14:56.192Z,12.30
2023-05-11T21:17:24.474Z,12.40
2023-05-11T21:19:52.260Z,12.20
2023-05-11T21:22:19.855Z,12.20
2023-05-11T21:24:47.322Z,12.20
2023-05-11T21:27:15.328Z,12.20
2023-05-11T21:29:42.897Z,12.10
2023-05-11T21:32:10.694Z,12.10
2023-05-11T21:34:38.615Z,12.00
2023-05-11T21:37:06.095Z,12.00
2023-05-11T21:39:33.646Z,12.00
2023-05-11T21:42:01.824Z,12.00
2023-05-11T21:44:29.552Z,11.90
2023-05-11T21:46:57.151Z,11.90
2023-05-11T21:49:24.893Z,11.90
2023-05-11T21:51:52.529Z,11.90
2023-05-11T21:54:23.126Z,11.80
2023-05-11T21:56:52.308Z,11.70
2023-05-11T21:59:20.142Z,11.70
2023-05-11T22:01:49.370Z,11.70
2023-05-11T22:04:16.937Z,11.70
2023-05-11T22:06:44.488Z,11.70
2023-05-11T22:09:12.851Z,11.70
2023-05-11T22:11:40.346Z,11.70
2023-05-11T22:14:07.898Z,11.70
2023-05-11T22:16:35.497Z,11.70
2023-05-11T22:19:03.638Z,11.60
2023-05-11T22:21:31.155Z,11.60
2023-05-11T22:23:59.395Z,11.60
2023-05-11T22:26:26.984Z,11.50
2023-05-11T22:28:54.480Z,11.50
2023-05-11T22:31:22.561Z,11.60
2023-05-11T22:33:50.019Z,11.60
2023-05-11T22:36:17.628Z,11.50
2023-05-11T22:38:45.137Z,11.50
2023-05-11T22:41:12.656Z,11.50
2023-05-11T22:43:40.115Z,11.40
2023-05-11T22:46:08.438Z,11.40
2023-05-11T22:48:36.036Z,11.40
2023-05-11T22:51:06.521Z,11.40
2023-05-11T22:53:34.099Z,11.50
2023-05-11T22:56:07.721Z,11.50
2023-05-11T22:58:35.541Z,11.50
2023-05-11T23:01:03.048Z,11.50
2023-05-11T23:03:30.578Z,11.50
2023-05-11T23:05:58.081Z,11.50
2023-05-11T23:08:26.871Z,11.50
2023-05-11T23:10:54.379Z,11.50
2023-05-11T23:13:22.616Z,11.50
2023-05-11T23:15:50.582Z,11.40
2023-05-11T23:18:18.099Z,11.40
2023-05-11T23:20:45.665Z,11.30
2023-05-11T23:23:13.607Z,11.30
2023-05-11T23:25:41.259Z,11.30
2023-05-11T23:28:11.728Z,11.30
2023-05-11T23:30:39.306Z,11.30
2023-05-11T23:33:07.320Z,11.20
2023-05-11T23:35:34.874Z,11.20
2023-05-11T23:38:02.448Z,11.20
2023-05-11T23:40:30.099Z,11.20
2023-05-11T23:42:57.697Z,11.10
2023-05-11T23:45:26.448Z,11.10
2023-05-11T23:47:54.304Z,11.10
2023-05-11T23:50:21.953Z,11.10
2023-05-11T23:52:49.887Z,11.00
2023-05-11T23:55:17.418Z,11.00
2023-05-11T23:57:45.171Z,10.90
